sensor_id;sensor_type;location;lat;lon;timestamp;P1;durP1;ratioP1;P2;durP2;ratioP2
23148;SDS011;11743;51.228;22.498;2022-07-04T00:00:09;11.38;;;9.85;;
23148;SDS011;11743;51.228;22.498;2022-07-04T00:00:31;11.57;;;9.43;;
23148;SDS011;11743;51.228;22.498;2022-07-04T00:00:53;10.93;;;9.30;;
23148;SDS011;11743;51.228;22.498;2022-07-04T00:01:15;11.23;;;9.55;;
23148;SDS011;11743;51.228;22.498;2022-07-04T00:01:37;11.60;;;9.65;;
23148;SDS011;11743;51.228;22.498;2022-07-04T00:01:59;10.27;;;9.00;;
23148;SDS011;11743;51.228;22.498;2022-07-04T00:02:21;10.85;;;9.43;;
23148;SDS011;11743;51.228;22.498;2022-07-04T00:02:43;10.52;;;9.07;;
23148;SDS011;11743;51.228;22.498;2022-07-04T00:03:06;10.85;;;9.70;;
23148;SDS011;11743;51.228;22.498;2022-07-04T00:03:28;11.20;;;10.00;;
23148;SDS011;11743;51.228;22.498;2022-07-04T00:03:50;13.80;;;9.90;;
23148;SDS011;11743;51.228;22.498;2022-07-04T00:04:11;11.10;;;9.75;;
23148;SDS011;11743;51.228;22.498;2022-07-04T00:04:34;10.95;;;9.30;;
23148;SDS011;11743;51.228;22.498;2022-07-04T00:04:56;11.15;;;9.82;;
23148;SDS011;11743;51.228;22.498;2022-07-04T00:05:18;11.40;;;10.20;;
23148;SDS011;11743;51.228;22.498;2022-07-04T00:05:41;11.20;;;10.00;;
23148;SDS011;11743;51.228;22.498;2022-07-04T00:06:03;12.03;;;10.13;;
23148;SDS011;11743;51.228;22.498;2022-07-04T00:06:24;10.75;;;9.60;;
23148;SDS011;11743;51.228;22.498;2022-07-04T00:06:46;11.75;;;9.50;;
23148;SDS011;11743;51.228;22.498;2022-07-04T00:07:08;10.73;;;9.30;;
23148;SDS011;11743;51.228;22.498;2022-07-04T00:07:30;12.25;;;10.10;;
23148;SDS011;11743;51.228;22.498;2022-07-04T00:07:52;11.45;;;9.90;;
23148;SDS011;11743;51.228;22.498;2022-07-04T00:08:16;11.68;;;10.25;;
23148;SDS011;11743;51.228;22.498;2022-07-04T00:08:38;11.90;;;9.85;;
23148;SDS011;11743;51.228;22.498;2022-07-04T00:08:59;12.15;;;10.18;;
23148;SDS011;11743;51.228;22.498;2022-07-04T00:09:21;12.27;;;10.02;;
23148;SDS011;11743;51.228;22.498;2022-07-04T00:09:43;11.05;;;9.85;;
23148;SDS011;11743;51.228;22.498;2022-07-04T00:10:05;12.00;;;10.38;;
23148;SDS011;11743;51.228;22.498;2022-07-04T00:10:28;12.05;;;10.25;;
23148;SDS011;11743;51.228;22.498;2022-07-04T00:10:50;11.25;;;9.50;;
23148;SDS011;11743;51.228;22.498;2022-07-04T00:11:12;10.00;;;8.98;;
23148;SDS011;11743;51.228;22.498;2022-07-04T00:11:34;10.93;;;9.55;;
23148;SDS011;11743;51.228;22.498;2022-07-04T00:11:56;11.40;;;10.18;;
23148;SDS011;11743;51.228;22.498;2022-07-04T00:12:18;12.80;;;10.50;;
23148;SDS011;11743;51.228;22.498;2022-07-04T00:12:40;12.07;;;9.77;;
23148;SDS011;11743;51.228;22.498;2022-07-04T00:13:02;12.80;;;10.02;;
23148;SDS011;11743;51.228;22.498;2022-07-04T00:13:24;11.52;;;10.25;;
23148;SDS011;11743;51.228;22.498;2022-07-04T00:13:46;12.15;;;9.70;;
23148;SDS011;11743;51.228;22.498;2022-07-04T00:14:07;13.88;;;10.75;;
23148;SDS011;11743;51.228;22.498;2022-07-04T00:14:30;13.73;;;11.18;;
23148;SDS011;11743;51.228;22.498;2022-07-04T00:14:52;14.38;;;11.15;;
23148;SDS011;11743;51.228;22.498;2022-07-04T00:15:14;12.35;;;10.85;;
23148;SDS011;11743;51.228;22.498;2022-07-04T00:15:36;11.70;;;10.05;;
23148;SDS011;11743;51.228;22.498;2022-07-04T00:15:58;12.57;;;10.43;;
23148;SDS011;11743;51.228;22.498;2022-07-04T00:16:20;12.77;;;10.32;;
23148;SDS011;11743;51.228;22.498;2022-07-04T00:16:42;12.80;;;10.32;;
23148;SDS011;11743;51.228;22.498;2022-07-04T00:17:04;11.60;;;10.35;;
23148;SDS011;11743;51.228;22.498;2022-07-04T00:17:26;12.32;;;10.50;;
23148;SDS011;11743;51.228;22.498;2022-07-04T00:17:48;13.45;;;10.50;;
23148;SDS011;11743;51.228;22.498;2022-07-04T00:18:10;14.38;;;9.80;;
23148;SDS011;11743;51.228;22.498;2022-07-04T00:18:33;13.20;;;9.55;;
23148;SDS011;11743;51.228;22.498;2022-07-04T00:18:55;11.30;;;9.75;;
23148;SDS011;11743;51.228;22.498;2022-07-04T00:19:17;12.98;;;10.68;;
23148;SDS011;11743;51.228;22.498;2022-07-04T00:19:39;13.38;;;10.80;;
23148;SDS011;11743;51.228;22.498;2022-07-04T00:20:00;11.57;;;9.98;;
23148;SDS011;11743;51.228;22.498;2022-07-04T00:20:23;11.38;;;9.57;;
23148;SDS011;11743;51.228;22.498;2022-07-04T00:20:45;11.50;;;9.57;;
23148;SDS011;11743;51.228;22.498;2022-07-04T00:21:07;12.93;;;10.35;;
23148;SDS011;11743;51.228;22.498;2022-07-04T00:21:29;11.95;;;9.68;;
23148;SDS011;11743;51.228;22.498;2022-07-04T00:21:51;12.93;;;10.23;;
23148;SDS011;11743;51.228;22.498;2022-07-04T00:22:15;14.18;;;10.75;;
23148;SDS011;11743;51.228;22.498;2022-07-04T00:22:37;13.30;;;10.75;;
23148;SDS011;11743;51.228;22.498;2022-07-04T00:22:59;12.90;;;10.50;;
23148;SDS011;11743;51.228;22.498;2022-07-04T00:23:21;13.25;;;10.98;;
23148;SDS011;11743;51.228;22.498;2022-07-04T00:23:43;11.98;;;10.07;;
23148;SDS011;11743;51.228;22.498;2022-07-04T00:24:05;12.48;;;10.18;;
23148;SDS011;11743;51.228;22.498;2022-07-04T00:24:27;11.32;;;9.98;;
23148;SDS011;11743;51.228;22.498;2022-07-04T00:24:49;12.68;;;11.27;;
23148;SDS011;11743;51.228;22.498;2022-07-04T00:25:11;12.45;;;10.68;;
23148;SDS011;11743;51.228;22.498;2022-07-04T00:25:33;13.10;;;10.98;;
23148;SDS011;11743;51.228;22.498;2022-07-04T00:25:55;13.73;;;11.00;;
23148;SDS011;11743;51.228;22.498;2022-07-04T00:26:17;13.85;;;10.43;;
23148;SDS011;11743;51.228;22.498;2022-07-04T00:26:39;12.82;;;9.88;;
23148;SDS011;11743;51.228;22.498;2022-07-04T00:27:01;11.70;;;9.55;;
23148;SDS011;11743;51.228;22.498;2022-07-04T00:27:23;11.73;;;9.75;;
23148;SDS011;11743;51.228;22.498;2022-07-04T00:27:44;13.20;;;9.50;;
23148;SDS011;11743;51.228;22.498;2022-07-04T00:28:07;12.50;;;10.35;;
23148;SDS011;11743;51.228;22.498;2022-07-04T00:28:29;11.73;;;10.20;;
23148;SDS011;11743;51.228;22.498;2022-07-04T00:28:51;13.05;;;10.90;;
23148;SDS011;11743;51.228;22.498;2022-07-04T00:29:12;13.03;;;10.67;;
23148;SDS011;11743;51.228;22.498;2022-07-04T00:29:35;11.00;;;9.77;;
23148;SDS011;11743;51.228;22.498;2022-07-04T00:29:57;11.27;;;10.07;;
23148;SDS011;11743;51.228;22.498;2022-07-04T00:30:19;12.98;;;10.93;;
23148;SDS011;11743;51.228;22.498;2022-07-04T00:30:41;12.60;;;11.10;;
23148;SDS011;11743;51.228;22.498;2022-07-04T00:31:02;14.23;;;10.52;;
23148;SDS011;11743;51.228;22.498;2022-07-04T00:31:24;12.43;;;10.25;;
23148;SDS011;11743;51.228;22.498;2022-07-04T00:31:48;12.73;;;9.57;;
23148;SDS011;11743;51.228;22.498;2022-07-04T00:32:10;11.68;;;9.68;;
23148;SDS011;11743;51.228;22.498;2022-07-04T00:32:32;13.27;;;9.98;;
23148;SDS011;11743;51.228;22.498;2022-07-04T00:32:54;12.30;;;10.13;;
23148;SDS011;11743;51.228;22.498;2022-07-04T00:33:16;13.45;;;10.60;;
23148;SDS011;11743;51.228;22.498;2022-07-04T00:33:38;13.00;;;10.60;;
23148;SDS011;11743;51.228;22.498;2022-07-04T00:34:00;12.52;;;10.20;;
23148;SDS011;11743;51.228;22.498;2022-07-04T00:34:22;12.73;;;10.25;;
23148;SDS011;11743;51.228;22.498;2022-07-04T00:34:43;13.55;;;10.52;;
23148;SDS011;11743;51.228;22.498;2022-07-04T00:35:06;13.25;;;10.43;;
23148;SDS011;11743;51.228;22.498;2022-07-04T00:35:29;11.77;;;10.48;;
23148;SDS011;11743;51.228;22.498;2022-07-04T00:35:50;12.15;;;9.98;;
23148;SDS011;11743;51.228;22.498;2022-07-04T00:36:12;13.35;;;10.30;;
23148;SDS011;11743;51.228;22.498;2022-07-04T00:36:35;13.75;;;10.60;;
23148;SDS011;11743;51.228;22.498;2022-07-04T00:36:56;12.73;;;10.75;;
23148;SDS011;11743;51.228;22.498;2022-07-04T00:37:18;11.45;;;10.18;;
23148;SDS011;11743;51.228;22.498;2022-07-04T00:37:40;12.48;;;10.65;;
23148;SDS011;11743;51.228;22.498;2022-07-04T00:38:04;11.98;;;10.57;;
23148;SDS011;11743;51.228;22.498;2022-07-04T00:38:26;12.48;;;10.43;;
23148;SDS011;11743;51.228;22.498;2022-07-04T00:38:48;14.40;;;10.88;;
23148;SDS011;11743;51.228;22.498;2022-07-04T00:39:10;13.15;;;10.30;;
23148;SDS011;11743;51.228;22.498;2022-07-04T00:39:31;12.70;;;10.15;;
23148;SDS011;11743;51.228;22.498;2022-07-04T00:40:01;11.68;;;10.40;;
23148;SDS011;11743;51.228;22.498;2022-07-04T00:40:22;11.30;;;10.10;;
23148;SDS011;11743;51.228;22.498;2022-07-04T00:40:44;13.10;;;10.40;;
23148;SDS011;11743;51.228;22.498;2022-07-04T00:41:06;13.88;;;10.23;;
23148;SDS011;11743;51.228;22.498;2022-07-04T00:41:28;13.70;;;10.35;;
23148;SDS011;11743;51.228;22.498;2022-07-04T00:41:50;12.55;;;10.32;;
23148;SDS011;11743;51.228;22.498;2022-07-04T00:42:12;11.57;;;10.18;;
23148;SDS011;11743;51.228;22.498;2022-07-04T00:42:34;12.00;;;10.23;;
23148;SDS011;11743;51.228;22.498;2022-07-04T00:43:00;13.93;;;10.52;;
23148;SDS011;11743;51.228;22.498;2022-07-04T00:43:25;13.05;;;10.50;;
23148;SDS011;11743;51.228;22.498;2022-07-04T00:44:33;12.65;;;10.10;;
23148;SDS011;11743;51.228;22.498;2022-07-04T00:44:57;13.35;;;10.13;;
23148;SDS011;11743;51.228;22.498;2022-07-04T00:45:19;12.85;;;10.75;;
23148;SDS011;11743;51.228;22.498;2022-07-04T00:45:41;13.57;;;10.95;;
23148;SDS011;11743;51.228;22.498;2022-07-04T00:46:03;13.43;;;11.07;;
23148;SDS011;11743;51.228;22.498;2022-07-04T00:46:27;11.38;;;9.90;;
23148;SDS011;11743;51.228;22.498;2022-07-04T00:46:49;11.15;;;9.65;;
23148;SDS011;11743;51.228;22.498;2022-07-04T00:47:11;9.55;;;8.40;;
23148;SDS011;11743;51.228;22.498;2022-07-04T00:47:33;9.60;;;8.60;;
23148;SDS011;11743;51.228;22.498;2022-07-04T00:47:55;11.40;;;9.75;;
23148;SDS011;11743;51.228;22.498;2022-07-04T00:48:17;11.03;;;9.77;;
23148;SDS011;11743;51.228;22.498;2022-07-04T00:48:40;12.68;;;10.30;;
23148;SDS011;11743;51.228;22.498;2022-07-04T00:49:03;12.07;;;10.15;;
23148;SDS011;11743;51.228;22.498;2022-07-04T00:49:25;11.43;;;9.93;;
23148;SDS011;11743;51.228;22.498;2022-07-04T00:49:47;13.57;;;11.50;;
23148;SDS011;11743;51.228;22.498;2022-07-04T00:50:09;12.77;;;10.77;;
23148;SDS011;11743;51.228;22.498;2022-07-04T00:50:31;11.65;;;10.32;;
23148;SDS011;11743;51.228;22.498;2022-07-04T00:50:55;12.02;;;10.50;;
23148;SDS011;11743;51.228;22.498;2022-07-04T00:51:17;12.10;;;10.32;;
23148;SDS011;11743;51.228;22.498;2022-07-04T00:51:40;12.68;;;10.77;;
23148;SDS011;11743;51.228;22.498;2022-07-04T00:52:03;14.27;;;11.23;;
23148;SDS011;11743;51.228;22.498;2022-07-04T00:52:25;13.43;;;10.95;;
23148;SDS011;11743;51.228;22.498;2022-07-04T00:52:48;14.65;;;10.90;;
23148;SDS011;11743;51.228;22.498;2022-07-04T00:53:10;15.88;;;11.13;;
23148;SDS011;11743;51.228;22.498;2022-07-04T00:53:32;12.57;;;10.73;;
23148;SDS011;11743;51.228;22.498;2022-07-04T00:53:54;12.82;;;10.73;;
23148;SDS011;11743;51.228;22.498;2022-07-04T00:54:17;12.03;;;10.70;;
23148;SDS011;11743;51.228;22.498;2022-07-04T00:54:39;13.55;;;10.73;;
23148;SDS011;11743;51.228;22.498;2022-07-04T00:55:01;13.60;;;10.98;;
23148;SDS011;11743;51.228;22.498;2022-07-04T00:55:24;13.07;;;10.80;;
23148;SDS011;11743;51.228;22.498;2022-07-04T00:55:46;15.20;;;10.63;;
23148;SDS011;11743;51.228;22.498;2022-07-04T00:56:08;16.88;;;11.25;;
23148;SDS011;11743;51.228;22.498;2022-07-04T00:56:30;16.70;;;11.32;;
23148;SDS011;11743;51.228;22.498;2022-07-04T00:56:52;13.93;;;9.75;;
23148;SDS011;11743;51.228;22.498;2022-07-04T00:57:15;13.57;;;9.95;;
23148;SDS011;11743;51.228;22.498;2022-07-04T00:57:37;14.15;;;11.00;;
23148;SDS011;11743;51.228;22.498;2022-07-04T00:57:59;16.33;;;11.05;;
23148;SDS011;11743;51.228;22.498;2022-07-04T00:58:21;14.88;;;11.30;;
23148;SDS011;11743;51.228;22.498;2022-07-04T00:58:46;13.35;;;10.98;;
23148;SDS011;11743;51.228;22.498;2022-07-04T00:59:08;14.57;;;11.15;;
23148;SDS011;11743;51.228;22.498;2022-07-04T00:59:31;14.65;;;10.30;;
23148;SDS011;11743;51.228;22.498;2022-07-04T00:59:53;13.40;;;9.98;;
23148;SDS011;11743;51.228;22.498;2022-07-04T01:00:15;11.23;;;9.35;;
23148;SDS011;11743;51.228;22.498;2022-07-04T01:00:38;14.48;;;10.20;;
23148;SDS011;11743;51.228;22.498;2022-07-04T01:01:01;13.40;;;9.98;;
23148;SDS011;11743;51.228;22.498;2022-07-04T01:01:23;14.23;;;10.20;;
23148;SDS011;11743;51.228;22.498;2022-07-04T01:01:45;13.93;;;9.70;;
23148;SDS011;11743;51.228;22.498;2022-07-04T01:02:07;12.82;;;9.43;;
23148;SDS011;11743;51.228;22.498;2022-07-04T01:02:29;17.00;;;10.63;;
23148;SDS011;11743;51.228;22.498;2022-07-04T01:02:51;15.27;;;10.10;;
23148;SDS011;11743;51.228;22.498;2022-07-04T01:03:13;12.27;;;8.50;;
23148;SDS011;11743;51.228;22.498;2022-07-04T01:03:34;11.48;;;9.15;;
23148;SDS011;11743;51.228;22.498;2022-07-04T01:03:56;11.93;;;9.80;;
23148;SDS011;11743;51.228;22.498;2022-07-04T01:04:18;14.48;;;9.80;;
23148;SDS011;11743;51.228;22.498;2022-07-04T01:04:40;18.25;;;11.10;;
23148;SDS011;11743;51.228;22.498;2022-07-04T01:05:04;19.42;;;10.98;;
23148;SDS011;11743;51.228;22.498;2022-07-04T01:05:28;15.07;;;10.93;;
23148;SDS011;11743;51.228;22.498;2022-07-04T01:05:50;14.27;;;10.70;;
23148;SDS011;11743;51.228;22.498;2022-07-04T01:06:13;12.95;;;10.57;;
23148;SDS011;11743;51.228;22.498;2022-07-04T01:06:35;12.48;;;10.43;;
23148;SDS011;11743;51.228;22.498;2022-07-04T01:06:57;18.13;;;11.35;;
23148;SDS011;11743;51.228;22.498;2022-07-04T01:07:19;18.15;;;11.40;;
23148;SDS011;11743;51.228;22.498;2022-07-04T01:07:42;14.88;;;10.82;;
23148;SDS011;11743;51.228;22.498;2022-07-04T01:08:04;15.38;;;11.50;;
23148;SDS011;11743;51.228;22.498;2022-07-04T01:08:26;14.73;;;11.68;;
23148;SDS011;11743;51.228;22.498;2022-07-04T01:08:50;14.45;;;11.50;;
23148;SDS011;11743;51.228;22.498;2022-07-04T01:09:12;15.95;;;11.70;;
23148;SDS011;11743;51.228;22.498;2022-07-04T01:09:34;13.70;;;11.30;;
23148;SDS011;11743;51.228;22.498;2022-07-04T01:09:57;14.90;;;12.38;;
23148;SDS011;11743;51.228;22.498;2022-07-04T01:10:20;13.70;;;11.85;;
23148;SDS011;11743;51.228;22.498;2022-07-04T01:10:42;13.25;;;11.50;;
23148;SDS011;11743;51.228;22.498;2022-07-04T01:11:03;14.30;;;11.00;;
23148;SDS011;11743;51.228;22.498;2022-07-04T01:11:25;14.32;;;11.25;;
23148;SDS011;11743;51.228;22.498;2022-07-04T01:11:50;15.20;;;11.93;;
23148;SDS011;11743;51.228;22.498;2022-07-04T01:12:23;15.80;;;12.38;;
23148;SDS011;11743;51.228;22.498;2022-07-04T01:12:48;15.43;;;11.80;;
23148;SDS011;11743;51.228;22.498;2022-07-04T01:13:23;12.77;;;11.00;;
23148;SDS011;11743;51.228;22.498;2022-07-04T01:13:45;14.48;;;11.45;;
23148;SDS011;11743;51.228;22.498;2022-07-04T01:14:09;15.02;;;11.57;;
23148;SDS011;11743;51.228;22.498;2022-07-04T01:14:31;14.88;;;11.10;;
23148;SDS011;11743;51.228;22.498;2022-07-04T01:14:52;13.88;;;10.82;;
23148;SDS011;11743;51.228;22.498;2022-07-04T01:15:14;14.48;;;11.48;;
23148;SDS011;11743;51.228;22.498;2022-07-04T01:15:37;14.38;;;12.27;;
23148;SDS011;11743;51.228;22.498;2022-07-04T01:15:59;14.38;;;11.25;;
23148;SDS011;11743;51.228;22.498;2022-07-04T01:16:24;15.95;;;11.45;;
23148;SDS011;11743;51.228;22.498;2022-07-04T01:16:47;16.20;;;11.93;;
23148;SDS011;11743;51.228;22.498;2022-07-04T01:17:08;12.68;;;10.82;;
23148;SDS011;11743;51.228;22.498;2022-07-04T01:17:30;14.13;;;10.77;;
23148;SDS011;11743;51.228;22.498;2022-07-04T01:17:52;14.30;;;11.57;;
23148;SDS011;11743;51.228;22.498;2022-07-04T01:18:14;14.43;;;10.90;;
23148;SDS011;11743;51.228;22.498;2022-07-04T01:18:36;16.02;;;11.93;;
23148;SDS011;11743;51.228;22.498;2022-07-04T01:18:59;17.10;;;11.85;;
23148;SDS011;11743;51.228;22.498;2022-07-04T01:19:22;16.23;;;12.20;;
23148;SDS011;11743;51.228;22.498;2022-07-04T01:19:44;16.00;;;11.88;;
23148;SDS011;11743;51.228;22.498;2022-07-04T01:20:09;13.98;;;11.25;;
23148;SDS011;11743;51.228;22.498;2022-07-04T01:20:34;12.63;;;10.73;;
23148;SDS011;11743;51.228;22.498;2022-07-04T01:20:57;13.23;;;10.80;;
23148;SDS011;11743;51.228;22.498;2022-07-04T01:21:19;15.52;;;11.45;;
23148;SDS011;11743;51.228;22.498;2022-07-04T01:21:41;14.00;;;11.65;;
23148;SDS011;11743;51.228;22.498;2022-07-04T01:22:04;13.13;;;11.05;;
23148;SDS011;11743;51.228;22.498;2022-07-04T01:22:28;13.00;;;10.15;;
23148;SDS011;11743;51.228;22.498;2022-07-04T01:22:50;12.00;;;9.27;;
23148;SDS011;11743;51.228;22.498;2022-07-04T01:23:12;12.38;;;10.07;;
23148;SDS011;11743;51.228;22.498;2022-07-04T01:23:40;12.17;;;9.93;;
23148;SDS011;11743;51.228;22.498;2022-07-04T01:24:02;14.10;;;10.40;;
23148;SDS011;11743;51.228;22.498;2022-07-04T01:24:24;14.13;;;10.98;;
23148;SDS011;11743;51.228;22.498;2022-07-04T01:24:46;13.73;;;10.18;;
23148;SDS011;11743;51.228;22.498;2022-07-04T01:25:09;12.05;;;9.77;;
23148;SDS011;11743;51.228;22.498;2022-07-04T01:25:31;10.90;;;9.77;;
23148;SDS011;11743;51.228;22.498;2022-07-04T01:25:54;13.65;;;10.85;;
23148;SDS011;11743;51.228;22.498;2022-07-04T01:26:17;15.82;;;11.10;;
23148;SDS011;11743;51.228;22.498;2022-07-04T01:26:39;13.90;;;10.82;;
23148;SDS011;11743;51.228;22.498;2022-07-04T01:27:01;14.13;;;10.88;;
23148;SDS011;11743;51.228;22.498;2022-07-04T01:27:23;15.27;;;11.23;;
23148;SDS011;11743;51.228;22.498;2022-07-04T01:27:45;13.38;;;11.10;;
23148;SDS011;11743;51.228;22.498;2022-07-04T01:28:07;16.55;;;10.95;;
23148;SDS011;11743;51.228;22.498;2022-07-04T01:28:29;15.45;;;11.30;;
23148;SDS011;11743;51.228;22.498;2022-07-04T01:28:51;13.65;;;10.95;;
23148;SDS011;11743;51.228;22.498;2022-07-04T01:29:13;12.13;;;9.98;;
23148;SDS011;11743;51.228;22.498;2022-07-04T01:29:37;13.98;;;10.52;;
23148;SDS011;11743;51.228;22.498;2022-07-04T01:29:59;14.25;;;11.25;;
23148;SDS011;11743;51.228;22.498;2022-07-04T01:30:21;13.05;;;11.13;;
23148;SDS011;11743;51.228;22.498;2022-07-04T01:30:43;14.25;;;10.70;;
23148;SDS011;11743;51.228;22.498;2022-07-04T01:31:05;14.52;;;11.63;;
23148;SDS011;11743;51.228;22.498;2022-07-04T01:31:27;14.27;;;11.60;;
23148;SDS011;11743;51.228;22.498;2022-07-04T01:31:49;16.60;;;11.70;;
23148;SDS011;11743;51.228;22.498;2022-07-04T01:32:12;15.23;;;11.32;;
23148;SDS011;11743;51.228;22.498;2022-07-04T01:32:35;13.77;;;10.98;;
23148;SDS011;11743;51.228;22.498;2022-07-04T01:32:57;15.88;;;11.70;;
23148;SDS011;11743;51.228;22.498;2022-07-04T01:33:18;14.50;;;11.77;;
23148;SDS011;11743;51.228;22.498;2022-07-04T01:33:40;13.98;;;11.55;;
23148;SDS011;11743;51.228;22.498;2022-07-04T01:34:05;13.55;;;11.55;;
23148;SDS011;11743;51.228;22.498;2022-07-04T01:34:27;14.68;;;11.75;;
23148;SDS011;11743;51.228;22.498;2022-07-04T01:34:49;14.15;;;10.60;;
23148;SDS011;11743;51.228;22.498;2022-07-04T01:35:11;12.88;;;10.25;;
23148;SDS011;11743;51.228;22.498;2022-07-04T01:35:32;12.55;;;11.10;;
23148;SDS011;11743;51.228;22.498;2022-07-04T01:35:54;14.43;;;12.07;;
23148;SDS011;11743;51.228;22.498;2022-07-04T01:36:17;14.85;;;11.55;;
23148;SDS011;11743;51.228;22.498;2022-07-04T01:36:38;15.30;;;11.82;;
23148;SDS011;11743;51.228;22.498;2022-07-04T01:37:01;15.95;;;11.82;;
23148;SDS011;11743;51.228;22.498;2022-07-04T01:37:22;13.82;;;12.07;;
23148;SDS011;11743;51.228;22.498;2022-07-04T01:37:45;13.57;;;11.88;;
23148;SDS011;11743;51.228;22.498;2022-07-04T01:38:07;16.33;;;11.52;;
23148;SDS011;11743;51.228;22.498;2022-07-04T01:38:29;17.55;;;11.90;;
23148;SDS011;11743;51.228;22.498;2022-07-04T01:38:50;14.25;;;11.32;;
23148;SDS011;11743;51.228;22.498;2022-07-04T01:39:12;14.98;;;12.05;;
23148;SDS011;11743;51.228;22.498;2022-07-04T01:39:34;14.38;;;12.25;;
23148;SDS011;11743;51.228;22.498;2022-07-04T01:39:56;14.57;;;12.18;;
23148;SDS011;11743;51.228;22.498;2022-07-04T01:40:18;15.10;;;11.82;;
23148;SDS011;11743;51.228;22.498;2022-07-04T01:40:40;12.93;;;11.18;;
23148;SDS011;11743;51.228;22.498;2022-07-04T01:41:02;13.65;;;11.50;;
23148;SDS011;11743;51.228;22.498;2022-07-04T01:41:24;15.30;;;12.65;;
23148;SDS011;11743;51.228;22.498;2022-07-04T01:41:46;16.38;;;12.70;;
23148;SDS011;11743;51.228;22.498;2022-07-04T01:42:08;15.70;;;12.32;;
23148;SDS011;11743;51.228;22.498;2022-07-04T01:42:30;15.52;;;12.45;;
23148;SDS011;11743;51.228;22.498;2022-07-04T01:42:52;14.45;;;11.95;;
23148;SDS011;11743;51.228;22.498;2022-07-04T01:43:14;13.13;;;10.75;;
23148;SDS011;11743;51.228;22.498;2022-07-04T01:43:35;12.95;;;10.70;;
23148;SDS011;11743;51.228;22.498;2022-07-04T01:43:57;14.48;;;11.80;;
23148;SDS011;11743;51.228;22.498;2022-07-04T01:44:20;14.30;;;11.57;;
23148;SDS011;11743;51.228;22.498;2022-07-04T01:44:42;15.80;;;12.38;;
23148;SDS011;11743;51.228;22.498;2022-07-04T01:45:05;14.65;;;12.13;;
23148;SDS011;11743;51.228;22.498;2022-07-04T01:45:27;15.85;;;12.32;;
23148;SDS011;11743;51.228;22.498;2022-07-04T01:45:49;14.90;;;12.20;;
23148;SDS011;11743;51.228;22.498;2022-07-04T01:46:11;16.63;;;12.80;;
23148;SDS011;11743;51.228;22.498;2022-07-04T01:46:33;18.17;;;12.80;;
23148;SDS011;11743;51.228;22.498;2022-07-04T01:46:55;16.02;;;12.18;;
23148;SDS011;11743;51.228;22.498;2022-07-04T01:47:17;13.75;;;11.32;;
23148;SDS011;11743;51.228;22.498;2022-07-04T01:47:39;15.57;;;11.82;;
23148;SDS011;11743;51.228;22.498;2022-07-04T01:48:06;14.60;;;11.52;;
23148;SDS011;11743;51.228;22.498;2022-07-04T01:48:29;12.77;;;10.55;;
23148;SDS011;11743;51.228;22.498;2022-07-04T01:48:51;13.10;;;10.63;;
23148;SDS011;11743;51.228;22.498;2022-07-04T01:49:13;14.88;;;11.40;;
23148;SDS011;11743;51.228;22.498;2022-07-04T01:49:34;14.93;;;11.85;;
23148;SDS011;11743;51.228;22.498;2022-07-04T01:49:58;13.68;;;11.45;;
23148;SDS011;11743;51.228;22.498;2022-07-04T01:50:20;13.48;;;11.20;;
23148;SDS011;11743;51.228;22.498;2022-07-04T01:50:42;12.95;;;10.20;;
23148;SDS011;11743;51.228;22.498;2022-07-04T01:51:04;14.15;;;10.68;;
23148;SDS011;11743;51.228;22.498;2022-07-04T01:51:26;13.77;;;11.07;;
23148;SDS011;11743;51.228;22.498;2022-07-04T01:51:48;12.38;;;10.75;;
23148;SDS011;11743;51.228;22.498;2022-07-04T01:52:11;12.32;;;10.88;;
23148;SDS011;11743;51.228;22.498;2022-07-04T01:52:33;13.85;;;11.15;;
23148;SDS011;11743;51.228;22.498;2022-07-04T01:52:58;13.63;;;10.85;;
23148;SDS011;11743;51.228;22.498;2022-07-04T01:53:21;11.45;;;10.15;;
23148;SDS011;11743;51.228;22.498;2022-07-04T01:53:43;14.20;;;11.23;;
23148;SDS011;11743;51.228;22.498;2022-07-04T01:54:04;14.20;;;11.38;;
23148;SDS011;11743;51.228;22.498;2022-07-04T01:54:29;13.98;;;11.57;;
23148;SDS011;11743;51.228;22.498;2022-07-04T01:54:52;14.07;;;10.85;;
23148;SDS011;11743;51.228;22.498;2022-07-04T01:55:14;14.60;;;11.13;;
23148;SDS011;11743;51.228;22.498;2022-07-04T01:55:36;12.52;;;10.88;;
23148;SDS011;11743;51.228;22.498;2022-07-04T01:55:58;14.68;;;11.38;;
23148;SDS011;11743;51.228;22.498;2022-07-04T01:56:20;12.85;;;10.55;;
23148;SDS011;11743;51.228;22.498;2022-07-04T01:56:42;12.68;;;10.82;;
23148;SDS011;11743;51.228;22.498;2022-07-04T01:57:04;12.90;;;10.73;;
23148;SDS011;11743;51.228;22.498;2022-07-04T01:57:27;12.60;;;11.00;;
23148;SDS011;11743;51.228;22.498;2022-07-04T01:57:49;11.55;;;10.25;;
23148;SDS011;11743;51.228;22.498;2022-07-04T01:58:11;12.52;;;10.25;;
23148;SDS011;11743;51.228;22.498;2022-07-04T01:58:33;12.65;;;10.23;;
23148;SDS011;11743;51.228;22.498;2022-07-04T01:58:55;13.27;;;10.80;;
23148;SDS011;11743;51.228;22.498;2022-07-04T01:59:17;14.23;;;10.57;;
23148;SDS011;11743;51.228;22.498;2022-07-04T01:59:39;13.55;;;11.10;;
23148;SDS011;11743;51.228;22.498;2022-07-04T02:00:19;13.70;;;11.27;;
23148;SDS011;11743;51.228;22.498;2022-07-04T02:01:00;13.50;;;11.35;;
23148;SDS011;11743;51.228;22.498;2022-07-04T02:01:41;11.73;;;9.57;;
23148;SDS011;11743;51.228;22.498;2022-07-04T02:02:03;13.15;;;10.95;;
23148;SDS011;11743;51.228;22.498;2022-07-04T02:02:25;14.35;;;12.13;;
23148;SDS011;11743;51.228;22.498;2022-07-04T02:02:47;14.18;;;12.05;;
23148;SDS011;11743;51.228;22.498;2022-07-04T02:03:09;13.18;;;11.40;;
23148;SDS011;11743;51.228;22.498;2022-07-04T02:03:31;12.23;;;10.93;;
23148;SDS011;11743;51.228;22.498;2022-07-04T02:03:53;12.95;;;11.63;;
23148;SDS011;11743;51.228;22.498;2022-07-04T02:04:16;14.00;;;11.47;;
23148;SDS011;11743;51.228;22.498;2022-07-04T02:04:38;14.98;;;12.13;;
23148;SDS011;11743;51.228;22.498;2022-07-04T02:05:00;14.45;;;11.52;;
23148;SDS011;11743;51.228;22.498;2022-07-04T02:05:22;14.32;;;11.23;;
23148;SDS011;11743;51.228;22.498;2022-07-04T02:05:45;14.02;;;12.05;;
23148;SDS011;11743;51.228;22.498;2022-07-04T02:06:08;13.93;;;11.70;;
23148;SDS011;11743;51.228;22.498;2022-07-04T02:06:30;14.13;;;11.73;;
23148;SDS011;11743;51.228;22.498;2022-07-04T02:06:53;14.68;;;11.90;;
23148;SDS011;11743;51.228;22.498;2022-07-04T02:07:15;13.60;;;11.07;;
23148;SDS011;11743;51.228;22.498;2022-07-04T02:07:37;12.43;;;10.77;;
23148;SDS011;11743;51.228;22.498;2022-07-04T02:07:59;13.63;;;11.25;;
23148;SDS011;11743;51.228;22.498;2022-07-04T02:08:21;14.30;;;11.20;;
23148;SDS011;11743;51.228;22.498;2022-07-04T02:08:43;14.48;;;11.38;;
23148;SDS011;11743;51.228;22.498;2022-07-04T02:09:23;14.40;;;11.80;;
23148;SDS011;11743;51.228;22.498;2022-07-04T02:09:45;16.63;;;11.75;;
23148;SDS011;11743;51.228;22.498;2022-07-04T02:10:07;14.05;;;11.63;;
23148;SDS011;11743;51.228;22.498;2022-07-04T02:10:30;12.60;;;11.07;;
23148;SDS011;11743;51.228;22.498;2022-07-04T02:10:51;11.88;;;10.45;;
23148;SDS011;11743;51.228;22.498;2022-07-04T02:11:13;14.10;;;10.77;;